sensor_id;sensor_type;location;lat;lon;timestamp;temperature;humidity
2112;DHT22;1062;52.538;13.400;2023-02-15T00:01:52;3.80;99.90
2112;DHT22;1062;52.538;13.400;2023-02-15T00:04:20;3.70;99.90
2112;DHT22;1062;52.538;13.400;2023-02-15T00:06:46;3.70;99.90
2112;DHT22;1062;52.538;13.400;2023-02-15T00:09:12;3.60;99.90
2112;DHT22;1062;52.538;13.400;2023-02-15T00:11:38;3.60;99.90
2112;DHT22;1062;52.538;13.400;2023-02-15T00:14:22;3.60;99.90
2112;DHT22;1062;52.538;13.400;2023-02-15T00:16:50;3.50;99.90
2112;DHT22;1062;52.538;13.400;2023-02-15T00:19:17;3.40;99.90
2112;DHT22;1062;52.538;13.400;2023-02-15T00:21:44;3.40;99.90
2112;DHT22;1062;52.538;13.400;2023-02-15T00:24:12;3.40;99.90
2112;DHT22;1062;52.538;13.400;2023-02-15T00:26:39;3.40;99.90
2112;DHT22;1062;52.538;13.400;2023-02-15T00:29:05;3.30;99.90
2112;DHT22;1062;52.538;13.400;2023-02-15T00:31:32;3.30;99.90
2112;DHT22;1062;52.538;13.400;2023-02-15T00:34:13;3.20;99.90
2112;DHT22;1062;52.538;13.400;2023-02-15T00:36:39;3.20;99.90
2112;DHT22;1062;52.538;13.400;2023-02-15T00:39:05;3.20;99.90
2112;DHT22;1062;52.538;13.400;2023-02-15T00:41:31;3.20;99.90
2112;DHT22;1062;52.538;13.400;2023-02-15T00:43:57;3.10;99.90
2112;DHT22;1062;52.538;13.400;2023-02-15T00:46:23;3.10;99.90
2112;DHT22;1062;52.538;13.400;2023-02-15T00:48:48;3.00;99.90
2112;DHT22;1062;52.538;13.400;2023-02-15T00:51:14;3.00;99.90
2112;DHT22;1062;52.538;13.400;2023-02-15T00:53:40;3.00;99.90
2112;DHT22;1062;52.538;13.400;2023-02-15T00:56:06;2.90;99.90
2112;DHT22;1062;52.538;13.400;2023-02-15T00:58:31;2.90;99.90
2112;DHT22;1062;52.538;13.400;2023-02-15T01:01:04;2.90;99.90
2112;DHT22;1062;52.538;13.400;2023-02-15T01:03:31;2.90;99.90
2112;DHT22;1062;52.538;13.400;2023-02-15T01:05:56;2.80;99.90
2112;DHT22;1062;52.538;13.400;2023-02-15T01:08:22;2.80;99.90
2112;DHT22;1062;52.538;13.400;2023-02-15T01:10:47;2.80;99.90
2112;DHT22;1062;52.538;13.400;2023-02-15T01:13:15;2.80;99.90
2112;DHT22;1062;52.538;13.400;2023-02-15T01:15:42;2.80;99.90
2112;DHT22;1062;52.538;13.400;2023-02-15T01:18:07;2.80;99.90
2112;DHT22;1062;52.538;13.400;2023-02-15T01:20:35;2.80;99.90
2112;DHT22;1062;52.538;13.400;2023-02-15T01:23:02;2.80;99.90
2112;DHT22;1062;52.538;13.400;2023-02-15T01:25:28;2.80;99.90
2112;DHT22;1062;52.538;13.400;2023-02-15T01:27:53;2.70;99.90
2112;DHT22;1062;52.538;13.400;2023-02-15T01:30:19;2.70;99.90
2112;DHT22;1062;52.538;13.400;2023-02-15T01:32:45;2.70;99.90
2112;DHT22;1062;52.538;13.400;2023-02-15T01:35:11;2.70;99.90
2112;DHT22;1062;52.538;13.400;2023-02-15T01:37:37;2.70;99.90
2112;DHT22;1062;52.538;13.400;2023-02-15T01:40:07;2.70;99.90
2112;DHT22;1062;52.538;13.400;2023-02-15T01:42:33;2.60;99.90
2112;DHT22;1062;52.538;13.400;2023-02-15T01:45:02;2.70;99.90
2112;DHT22;1062;52.538;13.400;2023-02-15T01:47:39;2.60;99.90
2112;DHT22;1062;52.538;13.400;2023-02-15T01:50:22;2.70;99.90
2112;DHT22;1062;52.538;13.400;2023-02-15T01:55:26;2.50;99.90
2112;DHT22;1062;52.538;13.400;2023-02-15T01:57:53;2.50;99.90
2112;DHT22;1062;52.538;13.400;2023-02-15T02:00:19;2.50;99.90
2112;DHT22;1062;52.538;13.400;2023-02-15T02:05:38;2.50;99.90
2112;DHT22;1062;52.538;13.400;2023-02-15T02:08:05;2.40;99.90
2112;DHT22;1062;52.538;13.400;2023-02-15T02:10:32;2.40;99.90
2112;DHT22;1062;52.538;13.400;2023-02-15T02:13:02;2.40;99.90
2112;DHT22;1062;52.538;13.400;2023-02-15T02:15:54;2.40;99.90
2112;DHT22;1062;52.538;13.400;2023-02-15T02:21:09;2.40;99.90
2112;DHT22;1062;52.538;13.400;2023-02-15T02:23:58;2.40;99.90
2112;DHT22;1062;52.538;13.400;2023-02-15T02:35:17;2.40;99.90
2112;DHT22;1062;52.538;13.400;2023-02-15T02:43:37;2.30;99.90
2112;DHT22;1062;52.538;13.400;2023-02-15T02:46:13;2.20;99.90
2112;DHT22;1062;52.538;13.400;2023-02-15T02:48:40;2.20;99.90
2112;DHT22;1062;52.538;13.400;2023-02-15T02:51:05;2.20;99.90
2112;DHT22;1062;52.538;13.400;2023-02-15T02:53:32;2.20;99.90
2112;DHT22;1062;52.538;13.400;2023-02-15T02:58:48;2.20;99.90
2112;DHT22;1062;52.538;13.400;2023-02-15T03:01:21;2.10;99.90
2112;DHT22;1062;52.538;13.400;2023-02-15T03:04:03;2.10;99.90
2112;DHT22;1062;52.538;13.400;2023-02-15T03:09:06;2.10;99.90
2112;DHT22;1062;52.538;13.400;2023-02-15T03:11:34;2.10;99.90
2112;DHT22;1062;52.538;13.400;2023-02-15T03:13:59;2.10;99.90
2112;DHT22;1062;52.538;13.400;2023-02-15T03:16:25;2.00;99.90
2112;DHT22;1062;52.538;13.400;2023-02-15T03:19:04;2.10;99.90
2112;DHT22;1062;52.538;13.400;2023-02-15T03:24:10;2.00;99.90
2112;DHT22;1062;52.538;13.400;2023-02-15T03:26:39;2.00;99.90
2112;DHT22;1062;52.538;13.400;2023-02-15T03:29:10;2.00;99.90
2112;DHT22;1062;52.538;13.400;2023-02-15T03:31:40;1.90;99.90
2112;DHT22;1062;52.538;13.400;2023-02-15T03:34:10;1.90;99.90
2112;DHT22;1062;52.538;13.400;2023-02-15T03:37:08;1.90;99.90
2112;DHT22;1062;52.538;13.400;2023-02-15T03:39:52;1.90;99.90
2112;DHT22;1062;52.538;13.400;2023-02-15T03:42:30;1.80;99.90
2112;DHT22;1062;52.538;13.400;2023-02-15T03:45:03;1.80;99.90
2112;DHT22;1062;52.538;13.400;2023-02-15T03:47:35;1.80;99.90
2112;DHT22;1062;52.538;13.400;2023-02-15T03:52:57;1.70;99.90
2112;DHT22;1062;52.538;13.400;2023-02-15T03:55:24;1.70;99.90
2112;DHT22;1062;52.538;13.400;2023-02-15T03:57:50;1.70;99.90
2112;DHT22;1062;52.538;13.400;2023-02-15T04:00:38;1.70;99.90
2112;DHT22;1062;52.538;13.400;2023-02-15T04:05:53;1.60;99.90
2112;DHT22;1062;52.538;13.400;2023-02-15T04:08:18;1.50;99.90
2112;DHT22;1062;52.538;13.400;2023-02-15T04:10:44;1.50;99.90
2112;DHT22;1062;52.538;13.400;2023-02-15T04:13:23;1.50;99.90
2112;DHT22;1062;52.538;13.400;2023-02-15T04:15:49;1.50;99.90
2112;DHT22;1062;52.538;13.400;2023-02-15T04:18:38;1.40;99.90
2112;DHT22;1062;52.538;13.400;2023-02-15T04:21:24;1.40;99.90
2112;DHT22;1062;52.538;13.400;2023-02-15T04:24:09;1.40;99.90
2112;DHT22;1062;52.538;13.400;2023-02-15T04:26:54;1.30;99.90
2112;DHT22;1062;52.538;13.400;2023-02-15T04:29:20;1.30;99.90
2112;DHT22;1062;52.538;13.400;2023-02-15T04:31:47;1.30;99.90
2112;DHT22;1062;52.538;13.400;2023-02-15T04:34:13;1.20;99.90
2112;DHT22;1062;52.538;13.400;2023-02-15T04:36:39;1.20;99.90
2112;DHT22;1062;52.538;13.400;2023-02-15T04:39:05;1.10;99.90
2112;DHT22;1062;52.538;13.400;2023-02-15T04:41:32;1.10;99.90
2112;DHT22;1062;52.538;13.400;2023-02-15T04:43:58;1.00;99.90
2112;DHT22;1062;52.538;13.400;2023-02-15T04:46:24;1.00;99.90
2112;DHT22;1062;52.538;13.400;2023-02-15T04:48:50;1.00;99.90
2112;DHT22;1062;52.538;13.400;2023-02-15T04:51:16;1.00;99.90
2112;DHT22;1062;52.538;13.400;2023-02-15T04:53:41;0.90;99.90
2112;DHT22;1062;52.538;13.400;2023-02-15T04:56:07;0.90;99.90
2112;DHT22;1062;52.538;13.400;2023-02-15T04:58:33;0.90;99.90
2112;DHT22;1062;52.538;13.400;2023-02-15T05:00:59;0.80;99.90
2112;DHT22;1062;52.538;13.400;2023-02-15T05:03:25;0.80;99.90
2112;DHT22;1062;52.538;13.400;2023-02-15T05:05:51;0.80;99.90
2112;DHT22;1062;52.538;13.400;2023-02-15T05:08:16;0.70;99.90
2112;DHT22;1062;52.538;13.400;2023-02-15T05:10:42;0.70;99.90
2112;DHT22;1062;52.538;13.400;2023-02-15T05:13:08;0.70;99.90
2112;DHT22;1062;52.538;13.400;2023-02-15T05:15:33;0.60;99.90
2112;DHT22;1062;52.538;13.400;2023-02-15T05:17:59;0.60;99.90
2112;DHT22;1062;52.538;13.400;2023-02-15T05:20:25;0.60;99.90
2112;DHT22;1062;52.538;13.400;2023-02-15T05:22:53;0.60;99.90
2112;DHT22;1062;52.538;13.400;2023-02-15T05:25:19;0.50;99.90
2112;DHT22;1062;52.538;13.400;2023-02-15T05:28:04;0.50;99.90
2112;DHT22;1062;52.538;13.400;2023-02-15T05:30:47;0.40;99.90
2112;DHT22;1062;52.538;13.400;2023-02-15T05:33:12;0.40;99.90
2112;DHT22;1062;52.538;13.400;2023-02-15T05:35:38;0.40;99.90
2112;DHT22;1062;52.538;13.400;2023-02-15T05:38:04;0.40;99.90
2112;DHT22;1062;52.538;13.400;2023-02-15T05:40:29;0.40;99.90
2112;DHT22;1062;52.538;13.400;2023-02-15T05:42:56;0.40;99.90
2112;DHT22;1062;52.538;13.400;2023-02-15T05:45:22;0.40;99.90
2112;DHT22;1062;52.538;13.400;2023-02-15T05:47:47;0.40;99.90
2112;DHT22;1062;52.538;13.400;2023-02-15T05:50:13;0.40;99.90
2112;DHT22;1062;52.538;13.400;2023-02-15T05:52:39;0.40;99.90
2112;DHT22;1062;52.538;13.400;2023-02-15T05:55:05;0.40;99.90
2112;DHT22;1062;52.538;13.400;2023-02-15T05:57:31;0.40;99.90
2112;DHT22;1062;52.538;13.400;2023-02-15T05:59:57;0.40;99.90
2112;DHT22;1062;52.538;13.400;2023-02-15T06:02:22;0.40;99.90
2112;DHT22;1062;52.538;13.400;2023-02-15T06:04:48;0.40;99.90
2112;DHT22;1062;52.538;13.400;2023-02-15T06:07:13;0.40;99.90
2112;DHT22;1062;52.538;13.400;2023-02-15T06:09:39;0.40;99.90
2112;DHT22;1062;52.538;13.400;2023-02-15T06:12:05;0.40;99.90
2112;DHT22;1062;52.538;13.400;2023-02-15T06:14:30;0.40;99.90
2112;DHT22;1062;52.538;13.400;2023-02-15T06:16:56;0.40;99.90
2112;DHT22;1062;52.538;13.400;2023-02-15T06:19:22;0.40;99.90
2112;DHT22;1062;52.538;13.400;2023-02-15T06:21:48;0.40;99.90
2112;DHT22;1062;52.538;13.400;2023-02-15T06:24:14;0.40;99.90
2112;DHT22;1062;52.538;13.400;2023-02-15T06:26:39;0.40;99.90
2112;DHT22;1062;52.538;13.400;2023-02-15T06:29:05;0.40;99.90
2112;DHT22;1062;52.538;13.400;2023-02-15T06:31:30;0.40;99.90
2112;DHT22;1062;52.538;13.400;2023-02-15T06:33:56;0.40;99.90
2112;DHT22;1062;52.538;13.400;2023-02-15T06:36:27;0.40;99.90
2112;DHT22;1062;52.538;13.400;2023-02-15T06:38:54;0.40;99.90
2112;DHT22;1062;52.538;13.400;2023-02-15T06:41:19;0.40;99.90
2112;DHT22;1062;52.538;13.400;2023-02-15T06:43:45;0.40;99.90
2112;DHT22;1062;52.538;13.400;2023-02-15T06:46:11;0.50;99.90
2112;DHT22;1062;52.538;13.400;2023-02-15T06:48:36;0.50;99.90
2112;DHT22;1062;52.538;13.400;2023-02-15T06:51:02;0.60;99.90
2112;DHT22;1062;52.538;13.400;2023-02-15T06:53:27;0.60;99.90
2112;DHT22;1062;52.538;13.400;2023-02-15T06:56:03;0.60;99.90
2112;DHT22;1062;52.538;13.400;2023-02-15T06:58:35;1.10;99.90
2112;DHT22;1062;52.538;13.400;2023-02-15T07:01:00;1.10;99.90
2112;DHT22;1062;52.538;13.400;2023-02-15T07:03:26;1.00;99.90
2112;DHT22;1062;52.538;13.400;2023-02-15T07:05:55;1.10;99.90
2112;DHT22;1062;52.538;13.400;2023-02-15T07:08:21;1.00;99.90
2112;DHT22;1062;52.538;13.400;2023-02-15T07:10:49;1.30;99.90
2112;DHT22;1062;52.538;13.400;2023-02-15T07:13:15;1.10;99.90
2112;DHT22;1062;52.538;13.400;2023-02-15T07:15:40;1.10;99.90
2112;DHT22;1062;52.538;13.400;2023-02-15T07:18:06;1.40;99.90
2112;DHT22;1062;52.538;13.400;2023-02-15T07:20:32;1.20;99.90
2112;DHT22;1062;52.538;13.400;2023-02-15T07:23:01;1.40;99.90
2112;DHT22;1062;52.538;13.400;2023-02-15T07:25:26;1.50;99.90
2112;DHT22;1062;52.538;13.400;2023-02-15T07:28:00;1.30;99.90
2112;DHT22;1062;52.538;13.400;2023-02-15T07:30:26;1.40;99.90
2112;DHT22;1062;52.538;13.400;2023-02-15T07:32:58;1.00;99.90
2112;DHT22;1062;52.538;13.400;2023-02-15T07:35:53;1.50;99.90
2112;DHT22;1062;52.538;13.400;2023-02-15T07:38:20;1.30;99.90
2112;DHT22;1062;52.538;13.400;2023-02-15T07:40:46;1.20;99.90
2112;DHT22;1062;52.538;13.400;2023-02-15T07:43:12;1.10;99.90
2112;DHT22;1062;52.538;13.400;2023-02-15T07:45:37;1.30;99.90
2112;DHT22;1062;52.538;13.400;2023-02-15T07:48:04;1.40;99.90
2112;DHT22;1062;52.538;13.400;2023-02-15T07:50:30;1.40;99.90
2112;DHT22;1062;52.538;13.400;2023-02-15T07:52:57;1.40;99.90
2112;DHT22;1062;52.538;13.400;2023-02-15T07:55:22;1.40;99.90
2112;DHT22;1062;52.538;13.400;2023-02-15T07:57:50;1.50;99.90
2112;DHT22;1062;52.538;13.400;2023-02-15T08:00:18;1.40;99.90
2112;DHT22;1062;52.538;13.400;2023-02-15T08:02:50;1.50;99.90
2112;DHT22;1062;52.538;13.400;2023-02-15T08:05:36;1.80;99.90
2112;DHT22;1062;52.538;13.400;2023-02-15T08:08:03;1.90;99.90
2112;DHT22;1062;52.538;13.400;2023-02-15T08:10:29;1.80;99.90
2112;DHT22;1062;52.538;13.400;2023-02-15T08:13:13;1.90;99.90
2112;DHT22;1062;52.538;13.400;2023-02-15T08:15:38;1.80;99.90
2112;DHT22;1062;52.538;13.400;2023-02-15T08:18:04;1.90;99.90
2112;DHT22;1062;52.538;13.400;2023-02-15T08:20:31;2.00;99.90
2112;DHT22;1062;52.538;13.400;2023-02-15T08:22:56;2.00;99.90
2112;DHT22;1062;52.538;13.400;2023-02-15T08:25:22;2.10;99.90
2112;DHT22;1062;52.538;13.400;2023-02-15T08:27:49;2.30;99.90
2112;DHT22;1062;52.538;13.400;2023-02-15T08:30:15;2.30;99.90
2112;DHT22;1062;52.538;13.400;2023-02-15T08:32:41;2.50;99.90
2112;DHT22;1062;52.538;13.400;2023-02-15T08:35:07;2.30;99.90
2112;DHT22;1062;52.538;13.400;2023-02-15T08:37:32;2.40;99.90
2112;DHT22;1062;52.538;13.400;2023-02-15T08:39:58;2.50;99.90
2112;DHT22;1062;52.538;13.400;2023-02-15T08:42:23;2.70;99.90
2112;DHT22;1062;52.538;13.400;2023-02-15T08:44:49;2.60;99.90
2112;DHT22;1062;52.538;13.400;2023-02-15T08:47:16;2.60;99.90
2112;DHT22;1062;52.538;13.400;2023-02-15T08:49:42;2.60;99.90
2112;DHT22;1062;52.538;13.400;2023-02-15T08:52:07;2.70;99.90
2112;DHT22;1062;52.538;13.400;2023-02-15T08:54:33;2.80;99.90
2112;DHT22;1062;52.538;13.400;2023-02-15T08:56:59;2.90;99.90
2112;DHT22;1062;52.538;13.400;2023-02-15T08:59:25;3.10;99.90
2112;DHT22;1062;52.538;13.400;2023-02-15T09:01:53;3.20;99.90
2112;DHT22;1062;52.538;13.400;2023-02-15T09:04:19;3.30;99.90
2112;DHT22;1062;52.538;13.400;2023-02-15T09:06:47;3.40;99.90
2112;DHT22;1062;52.538;13.400;2023-02-15T09:09:12;3.30;99.90
2112;DHT22;1062;52.538;13.400;2023-02-15T09:11:41;3.60;99.90
2112;DHT22;1062;52.538;13.400;2023-02-15T09:14:12;3.90;99.90
2112;DHT22;1062;52.538;13.400;2023-02-15T09:16:43;3.80;99.90
2112;DHT22;1062;52.538;13.400;2023-02-15T09:19:11;4.30;99.90
2112;DHT22;1062;52.538;13.400;2023-02-15T09:21:38;4.60;99.90
2112;DHT22;1062;52.538;13.400;2023-02-15T09:24:06;4.20;99.90
2112;DHT22;1062;52.538;13.400;2023-02-15T09:26:35;4.50;99.90
2112;DHT22;1062;52.538;13.400;2023-02-15T09:29:02;4.50;99.90
2112;DHT22;1062;52.538;13.400;2023-02-15T09:31:34;4.70;99.90
2112;DHT22;1062;52.538;13.400;2023-02-15T09:34:02;4.90;99.90
2112;DHT22;1062;52.538;13.400;2023-02-15T09:36:31;4.70;99.90
2112;DHT22;1062;52.538;13.400;2023-02-15T09:44:05;4.90;99.90
2112;DHT22;1062;52.538;13.400;2023-02-15T09:52:35;4.80;99.90
2112;DHT22;1062;52.538;13.400;2023-02-15T09:55:24;4.70;99.90
2112;DHT22;1062;52.538;13.400;2023-02-15T09:58:03;5.20;99.90
2112;DHT22;1062;52.538;13.400;2023-02-15T10:10:58;4.80;99.90
2112;DHT22;1062;52.538;13.400;2023-02-15T10:16:55;5.20;99.90
2112;DHT22;1062;52.538;13.400;2023-02-15T10:27:47;4.70;99.90
2112;DHT22;1062;52.538;13.400;2023-02-15T10:30:14;4.50;99.90
2112;DHT22;1062;52.538;13.400;2023-02-15T10:33:02;4.30;99.90
2112;DHT22;1062;52.538;13.400;2023-02-15T10:36:06;4.40;99.90
2112;DHT22;1062;52.538;13.400;2023-02-15T10:38:58;4.20;99.90
2112;DHT22;1062;52.538;13.400;2023-02-15T10:41:51;4.60;99.90
2112;DHT22;1062;52.538;13.400;2023-02-15T10:47:03;4.80;99.90
2112;DHT22;1062;52.538;13.400;2023-02-15T11:06:30;5.20;99.90
2112;DHT22;1062;52.538;13.400;2023-02-15T11:09:01;5.30;99.90
2112;DHT22;1062;52.538;13.400;2023-02-15T11:11:33;5.30;99.90
2112;DHT22;1062;52.538;13.400;2023-02-15T11:14:03;5.20;99.90
2112;DHT22;1062;52.538;13.400;2023-02-15T11:16:37;5.20;99.90
2112;DHT22;1062;52.538;13.400;2023-02-15T11:19:12;5.40;99.90
2112;DHT22;1062;52.538;13.400;2023-02-15T11:21:44;5.50;99.90
2112;DHT22;1062;52.538;13.400;2023-02-15T11:24:17;5.60;99.90
2112;DHT22;1062;52.538;13.400;2023-02-15T11:27:00;5.80;99.90
2112;DHT22;1062;52.538;13.400;2023-02-15T11:29:37;6.00;99.90
2112;DHT22;1062;52.538;13.400;2023-02-15T11:35:25;5.90;99.90
2112;DHT22;1062;52.538;13.400;2023-02-15T11:40:46;6.10;99.90
2112;DHT22;1062;52.538;13.400;2023-02-15T11:43:43;6.00;99.90
2112;DHT22;1062;52.538;13.400;2023-02-15T11:46:13;6.10;99.90
2112;DHT22;1062;52.538;13.400;2023-02-15T11:48:40;6.30;99.90
2112;DHT22;1062;52.538;13.400;2023-02-15T11:51:19;6.30;99.90
2112;DHT22;1062;52.538;13.400;2023-02-15T11:53:46;6.50;99.90
2112;DHT22;1062;52.538;13.400;2023-02-15T11:56:16;6.60;99.90
2112;DHT22;1062;52.538;13.400;2023-02-15T11:58:47;6.30;99.90
2112;DHT22;1062;52.538;13.400;2023-02-15T12:01:20;6.70;99.90
2112;DHT22;1062;52.538;13.400;2023-02-15T12:04:04;6.70;99.90
2112;DHT22;1062;52.538;13.400;2023-02-15T12:06:34;6.80;99.90
2112;DHT22;1062;52.538;13.400;2023-02-15T12:11:41;6.70;99.90
2112;DHT22;1062;52.538;13.400;2023-02-15T12:14:09;6.80;99.90
2112;DHT22;1062;52.538;13.400;2023-02-15T12:16:46;7.00;99.90
2112;DHT22;1062;52.538;13.400;2023-02-15T12:21:51;7.00;99.90
2112;DHT22;1062;52.538;13.400;2023-02-15T12:24:18;7.10;99.90
2112;DHT22;1062;52.538;13.400;2023-02-15T12:27:05;7.20;99.90
2112;DHT22;1062;52.538;13.400;2023-02-15T12:29:52;7.00;99.90
2112;DHT22;1062;52.538;13.400;2023-02-15T12:32:24;7.20;99.90
2112;DHT22;1062;52.538;13.400;2023-02-15T12:34:52;7.30;99.90
2112;DHT22;1062;52.538;13.400;2023-02-15T12:37:23;7.50;99.90
2112;DHT22;1062;52.538;13.400;2023-02-15T12:39:56;7.60;99.90
2112;DHT22;1062;52.538;13.400;2023-02-15T12:42:23;7.70;99.90
2112;DHT22;1062;52.538;13.400;2023-02-15T12:47:20;7.80;99.90
2112;DHT22;1062;52.538;13.400;2023-02-15T12:52:29;7.90;99.90
2112;DHT22;1062;52.538;13.400;2023-02-15T12:54:55;7.90;99.90
2112;DHT22;1062;52.538;13.400;2023-02-15T12:57:34;8.10;99.90
2112;DHT22;1062;52.538;13.400;2023-02-15T13:00:05;8.10;99.90
2112;DHT22;1062;52.538;13.400;2023-02-15T13:02:41;8.10;99.90
2112;DHT22;1062;52.538;13.400;2023-02-15T13:08:09;8.20;99.90
2112;DHT22;1062;52.538;13.400;2023-02-15T13:13:20;8.60;99.90
2112;DHT22;1062;52.538;13.400;2023-02-15T13:15:50;8.70;99.90
2112;DHT22;1062;52.538;13.400;2023-02-15T13:18:23;8.60;99.90
2112;DHT22;1062;52.538;13.400;2023-02-15T13:20:54;8.80;99.90
2112;DHT22;1062;52.538;13.400;2023-02-15T13:23:30;8.90;99.90
2112;DHT22;1062;52.538;13.400;2023-02-15T13:25:59;9.00;99.90
2112;DHT22;1062;52.538;13.400;2023-02-15T13:28:46;9.10;99.90
2112;DHT22;1062;52.538;13.400;2023-02-15T13:31:15;9.10;99.90
2112;DHT22;1062;52.538;13.400;2023-02-15T13:34:20;9.00;99.90
2112;DHT22;1062;52.538;13.400;2023-02-15T13:37:18;9.20;99.90
2112;DHT22;1062;52.538;13.400;2023-02-15T13:39:58;9.50;99.90
2112;DHT22;1062;52.538;13.400;2023-02-15T13:42:40;9.50;99.90
2112;DHT22;1062;52.538;13.400;2023-02-15T13:45:30;9.50;99.90
2112;DHT22;1062;52.538;13.400;2023-02-15T13:51:07;9.80;99.90
2112;DHT22;1062;52.538;13.400;2023-02-15T14:01:31;9.90;99.90
2112;DHT22;1062;52.538;13.400;2023-02-15T14:06:52;9.80;99.90
2112;DHT22;1062;52.538;13.400;2023-02-15T14:09:28;9.80;99.90
2112;DHT22;1062;52.538;13.400;2023-02-15T14:19:53;10.10;99.90
2112;DHT22;1062;52.538;13.400;2023-02-15T14:27:34;10.00;99.90
2112;DHT22;1062;52.538;13.400;2023-02-15T14:30:20;10.20;99.90
2112;DHT22;1062;52.538;13.400;2023-02-15T14:32:54;10.10;99.90
2112;DHT22;1062;52.538;13.400;2023-02-15T14:35:24;10.30;99.90
2112;DHT22;1062;52.538;13.400;2023-02-15T14:40:51;10.40;99.90
2112;DHT22;1062;52.538;13.400;2023-02-15T14:43:53;10.20;99.90
2112;DHT22;1062;52.538;13.400;2023-02-15T14:46:53;10.30;99.90
2112;DHT22;1062;52.538;13.400;2023-02-15T14:49:26;10.30;99.90
2112;DHT22;1062;52.538;13.400;2023-02-15T14:51:57;10.30;99.90
2112;DHT22;1062;52.538;13.400;2023-02-15T15:07:27;9.70;99.90
2112;DHT22;1062;52.538;13.400;2023-02-15T15:12:46;9.60;99.90
2112;DHT22;1062;52.538;13.400;2023-02-15T15:18:01;9.60;99.90
2112;DHT22;1062;52.538;13.400;2023-02-15T15:20:46;9.60;99.90
2112;DHT22;1062;52.538;13.400;2023-02-15T15:25:46;9.50;99.90
2112;DHT22;1062;52.538;13.400;2023-02-15T15:28:52;9.50;99.90
2112;DHT22;1062;52.538;13.400;2023-02-15T15:34:16;9.50;99.90
2112;DHT22;1062;52.538;13.400;2023-02-15T15:37:09;9.40;99.90
2112;DHT22;1062;52.538;13.400;2023-02-15T15:45:45;9.30;99.90
2112;DHT22;1062;52.538;13.400;2023-02-15T15:50:53;9.10;99.90
2112;DHT22;1062;52.538;13.400;2023-02-15T15:53:24;9.00;99.90
2112;DHT22;1062;52.538;13.400;2023-02-15T15:55:54;8.90;99.90
2112;DHT22;1062;52.538;13.400;2023-02-15T15:58:21;8.90;99.90
2112;DHT22;1062;52.538;13.400;2023-02-15T16:00:50;8.80;99.90
2112;DHT22;1062;52.538;13.400;2023-02-15T16:03:21;8.80;99.90
2112;DHT22;1062;52.538;13.400;2023-02-15T16:05:48;8.70;99.90
2112;DHT22;1062;52.538;13.400;2023-02-15T16:08:38;8.60;99.90
2112;DHT22;1062;52.538;13.400;2023-02-15T16:11:15;8.50;99.90
2112;DHT22;1062;52.538;13.400;2023-02-15T16:13:42;8.50;99.90
2112;DHT22;1062;52.538;13.400;2023-02-15T16:16:08;8.40;99.90
2112;DHT22;1062;52.538;13.400;2023-02-15T16:18:37;8.40;99.90
2112;DHT22;1062;52.538;13.400;2023-02-15T16:21:04;8.30;99.90
2112;DHT22;1062;52.538;13.400;2023-02-15T16:28:53;8.10;99.90
2112;DHT22;1062;52.538;13.400;2023-02-15T16:31:20;8.00;99.90
2112;DHT22;1062;52.538;13.400;2023-02-15T16:33:48;7.90;99.90
2112;DHT22;1062;52.538;13.400;2023-02-15T16:36:25;7.90;99.90
2112;DHT22;1062;52.538;13.400;2023-02-15T16:41:21;7.80;99.90
2112;DHT22;1062;52.538;13.400;2023-02-15T16:43:49;7.70;99.90
2112;DHT22;1062;52.538;13.400;2023-02-15T16:46:26;7.60;99.90
2112;DHT22;1062;52.538;13.400;2023-02-15T16:48:56;7.60;99.90
2112;DHT22;1062;52.538;13.400;2023-02-15T16:51:28;7.50;99.90
2112;DHT22;1062;52.538;13.400;2023-02-15T16:53:56;7.50;99.90
2112;DHT22;1062;52.538;13.400;2023-02-15T16:56:27;7.50;99.90
2112;DHT22;1062;52.538;13.400;2023-02-15T16:58:54;7.40;99.90
2112;DHT22;1062;52.538;13.400;2023-02-15T17:01:24;7.30;99.90
2112;DHT22;1062;52.538;13.400;2023-02-15T17:03:51;7.30;99.90
2112;DHT22;1062;52.538;13.400;2023-02-15T17:06:35;7.20;99.90
2112;DHT22;1062;52.538;13.400;2023-02-15T17:09:05;7.20;99.90
2112;DHT22;1062;52.538;13.400;2023-02-15T17:11:42;7.10;99.90
2112;DHT22;1062;52.538;13.400;2023-02-15T17:16:35;7.00;99.90
2112;DHT22;1062;52.538;13.400;2023-02-15T17:19:02;7.00;99.90
2112;DHT22;1062;52.538;13.400;2023-02-15T17:21:32;7.00;99.90
2112;DHT22;1062;52.538;13.400;2023-02-15T17:24:02;7.00;99.90
2112;DHT22;1062;52.538;13.400;2023-02-15T17:26:35;7.00;99.90
2112;DHT22;1062;52.538;13.400;2023-02-15T17:29:11;6.90;99.90
2112;DHT22;1062;52.538;13.400;2023-02-15T17:31:39;6.90;99.90
2112;DHT22;1062;52.538;13.400;2023-02-15T17:34:05;6.80;99.90
2112;DHT22;1062;52.538;13.400;2023-02-15T17:36:31;6.70;99.90
2112;DHT22;1062;52.538;13.400;2023-02-15T17:41:27;6.70;99.90
2112;DHT22;1062;52.538;13.400;2023-02-15T17:43:53;6.60;99.90
2112;DHT22;1062;52.538;13.400;2023-02-15T17:46:19;6.60;99.90
2112;DHT22;1062;52.538;13.400;2023-02-15T17:48:52;6.60;99.90
2112;DHT22;1062;52.538;13.400;2023-02-15T17:51:19;6.60;99.90
2112;DHT22;1062;52.538;13.400;2023-02-15T17:53:45;6.50;99.90
2112;DHT22;1062;52.538;13.400;2023-02-15T17:56:29;6.40;99.90
2112;DHT22;1062;52.538;13.400;2023-02-15T17:58:55;6.40;99.90
2112;DHT22;1062;52.538;13.400;2023-02-15T18:01:21;6.40;99.90
2112;DHT22;1062;52.538;13.400;2023-02-15T18:04:08;6.30;99.90
2112;DHT22;1062;52.538;13.400;2023-02-15T18:06:55;6.20;99.90
2112;DHT22;1062;52.538;13.400;2023-02-15T18:09:39;6.10;99.90
2112;DHT22;1062;52.538;13.400;2023-02-15T18:12:30;6.00;99.90
2112;DHT22;1062;52.538;13.400;2023-02-15T18:14:57;6.00;99.90
2112;DHT22;1062;52.538;13.400;2023-02-15T18:17:37;6.00;99.90
2112;DHT22;1062;52.538;13.400;2023-02-15T18:20:06;6.00;99.90
2112;DHT22;1062;52.538;13.400;2023-02-15T18:22:35;6.00;99.90
2112;DHT22;1062;52.538;13.400;2023-02-15T18:25:01;6.00;99.90
2112;DHT22;1062;52.538;13.400;2023-02-15T18:27:26;6.00;99.90
2112;DHT22;1062;52.538;13.400;2023-02-15T18:29:52;5.90;99.90
2112;DHT22;1062;52.538;13.400;2023-02-15T18:32:30;5.80;99.90
2112;DHT22;1062;52.538;13.400;2023-02-15T18:34:57;5.80;99.90
2112;DHT22;1062;52.538;13.400;2023-02-15T18:37:25;5.70;99.90
2112;DHT22;1062;52.538;13.400;2023-02-15T18:39:52;5.60;99.90
2112;DHT22;1062;52.538;13.400;2023-02-15T18:44:55;5.60;99.90
2112;DHT22;1062;52.538;13.400;2023-02-15T18:47:21;5.60;99.90
2112;DHT22;1062;52.538;13.400;2023-02-15T18:49:47;5.60;99.90
2112;DHT22;1062;52.538;13.400;2023-02-15T18:52:26;5.50;99.90
2112;DHT22;1062;52.538;13.400;2023-02-15T18:54:57;5.50;99.90
2112;DHT22;1062;52.538;13.400;2023-02-15T18:57:24;5.40;99.90
2112;DHT22;1062;52.538;13.400;2023-02-15T18:59:49;5.30;99.90
2112;DHT22;1062;52.538;13.400;2023-02-15T19:02:17;5.30;99.90
2112;DHT22;1062;52.538;13.400;2023-02-15T19:04:44;5.30;99.90
2112;DHT22;1062;52.538;13.400;2023-02-15T19:07:24;5.20;99.90
2112;DHT22;1062;52.538;13.400;2023-02-15T19:09:57;5.20;99.90
2112;DHT22;1062;52.538;13.400;2023-02-15T19:12:24;5.20;99.90
2112;DHT22;1062;52.538;13.400;2023-02-15T19:14:49;5.10;99.90
2112;DHT22;1062;52.538;13.400;2023-02-15T19:17:18;5.20;99.90
2112;DHT22;1062;52.538;13.400;2023-02-15T19:19:45;5.10;99.90
2112;DHT22;1062;52.538;13.400;2023-02-15T19:22:31;5.00;99.90
2112;DHT22;1062;52.538;13.400;2023-02-15T19:25:00;5.00;99.90
2112;DHT22;1062;52.538;13.400;2023-02-15T19:27:32;5.00;99.90
2112;DHT22;1062;52.538;13.400;2023-02-15T19:30:06;4.90;99.90
2112;DHT22;1062;52.538;13.400;2023-02-15T19:32:38;4.90;99.90
2112;DHT22;1062;52.538;13.400;2023-02-15T19:35:03;4.90;99.90